createdAt,value
2018-12-09T00:00:45.374Z,989.39
2018-12-09T00:01:45.313Z,989.35
2018-12-09T00:02:45.289Z,989.35
2018-12-09T00:03:45.263Z,989.31
2018-12-09T00:04:45.235Z,989.22
2018-12-09T00:05:45.209Z,989.21
2018-12-09T00:06:45.383Z,989.20
2018-12-09T00:07:45.196Z,989.18
2018-12-09T00:08:45.135Z,989.12
2018-12-09T00:09:45.104Z,989.09
2018-12-09T00:10:45.132Z,989.04
2018-12-09T00:11:45.075Z,989.03
2018-12-09T00:12:45.028Z,989.02
2018-12-09T00:13:45.003Z,989.00
2018-12-09T00:14:44.976Z,988.96
2018-12-09T00:15:44.933Z,988.91
2018-12-09T00:16:44.929Z,988.95
2018-12-09T00:17:44.951Z,988.85
2018-12-09T00:18:44.854Z,988.78
2018-12-09T00:19:44.847Z,988.76
2018-12-09T00:20:44.803Z,988.69
2018-12-09T00:21:44.781Z,988.65
2018-12-09T00:22:44.726Z,988.67
2018-12-09T00:23:44.697Z,988.61
2018-12-09T00:24:44.667Z,988.65
2018-12-09T00:25:44.688Z,988.59
2018-12-09T00:26:44.658Z,988.55
2018-12-09T00:27:44.600Z,988.53
2018-12-09T00:28:44.680Z,988.51
2018-12-09T00:29:44.553Z,988.51
2018-12-09T00:30:44.514Z,988.43
2018-12-09T00:31:44.528Z,988.41
2018-12-09T00:32:44.520Z,988.36
2018-12-09T00:33:44.475Z,988.36
2018-12-09T00:34:44.401Z,988.39
2018-12-09T00:35:44.342Z,988.40
2018-12-09T00:36:44.323Z,988.34
2018-12-09T00:37:44.274Z,988.24
2018-12-09T00:38:44.244Z,988.24
2018-12-09T00:39:44.248Z,988.23
2018-12-09T00:40:44.197Z,988.18
2018-12-09T00:41:44.179Z,988.12
2018-12-09T00:42:44.138Z,988.17
2018-12-09T00:43:44.113Z,988.05
2018-12-09T00:44:44.073Z,988.07
2018-12-09T00:45:44.037Z,988.04
2018-12-09T00:46:44.027Z,988.01
2018-12-09T00:47:43.971Z,988.02
2018-12-09T00:48:43.934Z,987.98
2018-12-09T00:49:43.957Z,987.94
2018-12-09T00:50:43.900Z,987.90
2018-12-09T00:51:43.903Z,987.89
2018-12-09T00:52:43.849Z,987.91
2018-12-09T00:53:43.821Z,987.88
2018-12-09T00:54:43.808Z,987.76
2018-12-09T00:55:43.809Z,987.74
2018-12-09T00:56:43.769Z,987.79
2018-12-09T00:57:43.751Z,987.75
2018-12-09T00:58:43.711Z,987.65
2018-12-09T00:59:43.811Z,987.70
2018-12-09T01:00:43.674Z,987.68
2018-12-09T01:01:43.618Z,987.69
2018-12-09T01:02:43.597Z,987.66
2018-12-09T01:03:43.570Z,987.63
2018-12-09T01:04:43.541Z,987.59
2018-12-09T01:05:43.515Z,987.62
2018-12-09T01:06:43.477Z,987.52
2018-12-09T01:07:43.464Z,987.55
2018-12-09T01:08:43.415Z,987.52
2018-12-09T01:09:43.387Z,987.54
2018-12-09T01:10:43.555Z,987.46
2018-12-09T01:11:43.344Z,987.48
2018-12-09T01:12:43.385Z,987.38
2018-12-09T01:13:43.357Z,987.36
2018-12-09T01:14:43.262Z,987.28
2018-12-09T01:15:43.238Z,987.27
2018-12-09T01:16:43.209Z,987.25
2018-12-09T01:17:43.412Z,987.18
2018-12-09T01:18:43.153Z,987.14
2018-12-09T01:19:43.131Z,987.06
2018-12-09T01:20:43.098Z,987.03
2018-12-09T01:21:43.058Z,986.93
2018-12-09T01:22:43.044Z,986.91
2018-12-09T01:23:43.004Z,986.92
2018-12-09T01:24:42.967Z,986.84
2018-12-09T01:25:42.926Z,986.87
2018-12-09T01:26:43.125Z,986.91
2018-12-09T01:27:42.999Z,986.84
2018-12-09T01:28:42.847Z,986.74
2018-12-09T01:29:42.834Z,986.65
2018-12-09T01:30:42.798Z,986.69
2018-12-09T01:31:42.761Z,986.59
2018-12-09T01:32:42.745Z,986.54
2018-12-09T01:33:42.877Z,986.56
2018-12-09T01:34:42.680Z,986.55
2018-12-09T01:35:42.627Z,986.56
2018-12-09T01:36:42.631Z,986.51
2018-12-09T01:37:42.605Z,986.57
2018-12-09T01:38:42.565Z,986.52
2018-12-09T01:39:42.499Z,986.36
2018-12-09T01:40:42.475Z,986.36
2018-12-09T01:41:42.465Z,986.34
2018-12-09T01:42:42.452Z,986.32
2018-12-09T01:43:42.408Z,986.31
2018-12-09T01:44:42.348Z,986.29
2018-12-09T01:45:42.313Z,986.28
2018-12-09T01:46:42.273Z,986.25
2018-12-09T01:47:42.241Z,986.22
2018-12-09T01:48:42.233Z,986.22
2018-12-09T01:49:42.188Z,986.12
2018-12-09T01:50:42.158Z,986.12
2018-12-09T01:51:42.148Z,986.14
2018-12-09T01:52:42.127Z,986.07
2018-12-09T01:53:42.115Z,986.09
2018-12-09T01:54:42.069Z,986.05
2018-12-09T01:55:42.037Z,985.99
2018-12-09T01:56:41.996Z,986.03
2018-12-09T01:57:41.967Z,985.97
2018-12-09T01:58:41.949Z,986.03
2018-12-09T01:59:41.905Z,985.91
2018-12-09T02:00:41.882Z,985.92
2018-12-09T02:01:41.853Z,986.04
2018-12-09T02:02:41.827Z,986.04
2018-12-09T02:03:41.821Z,986.00
2018-12-09T02:04:41.781Z,985.99
2018-12-09T02:05:41.747Z,985.90
2018-12-09T02:06:41.711Z,985.93
2018-12-09T02:07:41.691Z,985.78
2018-12-09T02:08:41.683Z,985.68
2018-12-09T02:09:41.620Z,985.77
2018-12-09T02:10:41.600Z,985.80
2018-12-09T02:11:41.565Z,985.69
2018-12-09T02:12:41.525Z,985.70
2018-12-09T02:13:41.492Z,985.75
2018-12-09T02:14:41.483Z,985.65
2018-12-09T02:15:41.419Z,985.70
2018-12-09T02:16:41.389Z,985.62
2018-12-09T02:17:41.359Z,985.63
2018-12-09T02:18:41.328Z,985.71
2018-12-09T02:19:41.308Z,985.63
2018-12-09T02:20:41.262Z,985.61
2018-12-09T02:21:41.222Z,985.65
2018-12-09T02:22:41.190Z,985.51
2018-12-09T02:23:41.163Z,985.52
2018-12-09T02:24:41.152Z,985.43
2018-12-09T02:25:41.097Z,985.48
2018-12-09T02:26:41.066Z,985.52
2018-12-09T02:27:41.028Z,985.48
2018-12-09T02:28:41.000Z,985.41
2018-12-09T02:29:40.989Z,985.44
2018-12-09T02:30:40.945Z,985.38
2018-12-09T02:31:40.937Z,985.40
2018-12-09T02:32:40.914Z,985.37
2018-12-09T02:33:40.877Z,985.29
2018-12-09T02:34:40.895Z,985.26
2018-12-09T02:35:40.836Z,985.26
2018-12-09T02:36:40.815Z,985.23
2018-12-09T02:37:40.783Z,985.22
2018-12-09T02:38:40.758Z,985.25
2018-12-09T02:39:40.738Z,985.21
2018-12-09T02:40:40.718Z,985.19
2018-12-09T02:41:40.675Z,985.17
2018-12-09T02:42:40.661Z,985.06
2018-12-09T02:43:40.692Z,985.10
2018-12-09T02:44:40.627Z,985.07
2018-12-09T02:45:40.611Z,985.03
2018-12-09T02:46:40.577Z,985.05
2018-12-09T02:47:40.548Z,985.03
2018-12-09T02:48:40.511Z,985.04
2018-12-09T02:49:40.489Z,985.02
2018-12-09T02:50:40.471Z,985.01
2018-12-09T02:51:40.439Z,985.02
2018-12-09T02:52:40.403Z,984.97
2018-12-09T02:53:40.374Z,984.95
2018-12-09T02:54:40.352Z,984.96
2018-12-09T02:55:40.330Z,984.98
2018-12-09T02:56:40.269Z,984.90
2018-12-09T02:57:40.248Z,984.92
2018-12-09T02:58:40.305Z,984.85
2018-12-09T02:59:40.178Z,984.88
2018-12-09T03:00:40.164Z,984.85
2018-12-09T03:01:40.136Z,984.84
2018-12-09T03:02:40.089Z,984.83
2018-12-09T03:03:40.058Z,984.80
2018-12-09T03:04:40.034Z,984.80
2018-12-09T03:05:40.025Z,984.80
2018-12-09T03:06:39.962Z,984.80
2018-12-09T03:07:39.936Z,984.78
2018-12-09T03:08:39.907Z,984.76
2018-12-09T03:09:39.879Z,984.73
2018-12-09T03:10:39.850Z,984.67
2018-12-09T03:11:39.836Z,984.76
2018-12-09T03:12:41.458Z,984.76
2018-12-09T03:13:39.770Z,984.69
2018-12-09T03:14:39.744Z,984.69
2018-12-09T03:15:39.697Z,984.70
2018-12-09T03:16:39.693Z,984.62
2018-12-09T03:17:39.642Z,984.60
2018-12-09T03:18:39.610Z,984.64
2018-12-09T03:19:39.582Z,984.63
2018-12-09T03:20:39.558Z,984.65
2018-12-09T03:21:39.549Z,984.60
2018-12-09T03:22:39.511Z,984.66
2018-12-09T03:23:39.495Z,984.58
2018-12-09T03:24:39.457Z,984.66
2018-12-09T03:25:39.440Z,984.61
2018-12-09T03:26:39.419Z,984.63
2018-12-09T03:27:39.377Z,984.64
2018-12-09T03:28:39.346Z,984.60
2018-12-09T03:29:39.311Z,984.53
2018-12-09T03:30:39.281Z,984.60
2018-12-09T03:31:39.292Z,984.51
2018-12-09T03:32:39.220Z,984.49
2018-12-09T03:33:39.192Z,984.52
2018-12-09T03:34:39.156Z,984.52
2018-12-09T03:35:39.145Z,984.49
2018-12-09T03:36:39.122Z,984.51
2018-12-09T03:37:39.078Z,984.48
2018-12-09T03:38:39.041Z,984.48
2018-12-09T03:39:39.006Z,984.46
2018-12-09T03:40:39.000Z,984.46
2018-12-09T03:41:38.969Z,984.45
2018-12-09T03:42:38.962Z,984.40
2018-12-09T03:43:38.914Z,984.40
2018-12-09T03:44:38.885Z,984.36
2018-12-09T03:45:38.852Z,984.41
2018-12-09T03:46:38.822Z,984.35
2018-12-09T03:47:38.821Z,984.40
2018-12-09T03:48:38.762Z,984.41
2018-12-09T03:49:38.739Z,984.36
2018-12-09T03:50:38.722Z,984.38
2018-12-09T03:51:38.678Z,984.38
2018-12-09T03:52:38.663Z,984.35
2018-12-09T03:53:38.613Z,984.35
2018-12-09T03:54:38.599Z,984.32
2018-12-09T03:55:38.552Z,984.31
2018-12-09T03:56:38.515Z,984.32
2018-12-09T03:57:38.495Z,984.29
2018-12-09T03:58:39.380Z,984.28
2018-12-09T03:59:38.430Z,984.29
2018-12-09T04:00:38.397Z,984.27
2018-12-09T04:01:38.363Z,984.14
2018-12-09T04:02:38.346Z,984.17
2018-12-09T04:03:38.298Z,984.22
2018-12-09T04:04:38.271Z,984.27
2018-12-09T04:05:38.234Z,984.24
2018-12-09T04:06:38.199Z,984.23
2018-12-09T04:07:38.177Z,984.28
2018-12-09T04:08:38.145Z,984.22
2018-12-09T04:09:38.110Z,984.20
2018-12-09T04:10:38.075Z,984.26
2018-12-09T04:11:38.033Z,984.24
2018-12-09T04:12:38.027Z,984.18
2018-12-09T04:13:37.965Z,984.17
2018-12-09T04:14:37.928Z,984.19
2018-12-09T04:15:37.910Z,984.15
2018-12-09T04:16:37.878Z,984.12
2018-12-09T04:17:37.850Z,984.17
2018-12-09T04:18:37.830Z,984.10
2018-12-09T04:19:37.787Z,984.18
2018-12-09T04:20:37.768Z,984.20
2018-12-09T04:21:37.728Z,984.22
2018-12-09T04:22:37.696Z,984.18
2018-12-09T04:23:44.715Z,984.24
2018-12-09T04:24:37.637Z,984.14
2018-12-09T04:25:37.603Z,984.15
2018-12-09T04:26:37.573Z,984.14
2018-12-09T04:27:37.539Z,984.17
2018-12-09T04:28:37.516Z,984.16
2018-12-09T04:29:37.471Z,984.14
2018-12-09T04:30:37.439Z,984.16
2018-12-09T04:31:37.412Z,984.14
2018-12-09T04:32:37.386Z,984.09
2018-12-09T04:33:37.370Z,984.12
2018-12-09T04:34:37.339Z,984.12
2018-12-09T04:35:37.295Z,984.09
2018-12-09T04:36:37.267Z,984.11
2018-12-09T04:37:37.253Z,984.12
2018-12-09T04:38:37.228Z,984.12
2018-12-09T04:39:37.185Z,984.12
2018-12-09T04:40:37.148Z,984.06
2018-12-09T04:41:37.118Z,984.12
2018-12-09T04:42:37.096Z,984.13
2018-12-09T04:43:37.096Z,984.10
2018-12-09T04:44:37.041Z,984.08
2018-12-09T04:45:37.012Z,984.09
2018-12-09T04:46:36.989Z,984.05
2018-12-09T04:47:36.967Z,983.95
2018-12-09T04:48:36.956Z,984.04
2018-12-09T04:49:36.925Z,984.04
2018-12-09T04:50:36.887Z,984.04
2018-12-09T04:51:36.855Z,984.05
2018-12-09T04:52:36.846Z,984.03
2018-12-09T04:53:36.798Z,984.05
2018-12-09T04:54:36.785Z,984.02
2018-12-09T04:55:36.730Z,984.05
2018-12-09T04:56:36.698Z,984.11
2018-12-09T04:57:36.678Z,984.08
2018-12-09T04:58:36.631Z,984.11
2018-12-09T04:59:36.620Z,984.13
2018-12-09T05:00:36.564Z,984.11
2018-12-09T05:01:36.538Z,984.14
2018-12-09T05:02:36.505Z,984.13
2018-12-09T05:03:36.477Z,984.10
2018-12-09T05:04:36.456Z,984.09
2018-12-09T05:05:36.418Z,984.08
2018-12-09T05:06:36.397Z,984.08
2018-12-09T05:07:36.361Z,984.12
2018-12-09T05:08:36.342Z,984.12
2018-12-09T05:09:36.338Z,984.17
2018-12-09T05:10:36.295Z,984.14
2018-12-09T05:11:36.256Z,984.10
2018-12-09T05:12:36.229Z,984.12
2018-12-09T05:13:36.199Z,984.17
2018-12-09T05:14:36.182Z,984.18
2018-12-09T05:15:36.169Z,984.16
2018-12-09T05:16:36.124Z,984.16
2018-12-09T05:17:36.096Z,984.14
2018-12-09T05:18:36.170Z,984.19
2018-12-09T05:19:36.065Z,984.19
2018-12-09T05:20:36.058Z,984.20
2018-12-09T05:21:36.024Z,984.18
2018-12-09T05:22:36.004Z,984.22
2018-12-09T05:23:35.960Z,984.29
2018-12-09T05:24:35.935Z,984.27
2018-12-09T05:25:35.919Z,984.24
2018-12-09T05:26:35.858Z,984.30
2018-12-09T05:27:35.819Z,984.30
2018-12-09T05:28:35.786Z,984.31
2018-12-09T05:29:35.838Z,984.29
2018-12-09T05:30:35.750Z,984.38
2018-12-09T05:31:35.694Z,984.34
2018-12-09T05:32:35.671Z,984.37
2018-12-09T05:33:35.644Z,984.35
2018-12-09T05:34:35.616Z,984.34
2018-12-09T05:35:35.598Z,984.38
2018-12-09T05:36:35.557Z,984.35
2018-12-09T05:37:35.527Z,984.33
2018-12-09T05:38:35.499Z,984.36
2018-12-09T05:39:35.477Z,984.34
2018-12-09T05:40:35.465Z,984.40
2018-12-09T05:41:35.418Z,984.48
2018-12-09T05:42:35.396Z,984.39
2018-12-09T05:43:35.360Z,984.41
2018-12-09T05:44:35.371Z,984.48
2018-12-09T05:45:35.314Z,984.43
2018-12-09T05:46:35.306Z,984.44
2018-12-09T05:47:35.267Z,984.44
2018-12-09T05:48:35.234Z,984.42
2018-12-09T05:49:35.207Z,984.47
2018-12-09T05:50:35.188Z,984.53
2018-12-09T05:51:35.181Z,984.47
2018-12-09T05:52:35.143Z,984.51
2018-12-09T05:53:35.113Z,984.47
2018-12-09T05:54:35.093Z,984.51
2018-12-09T05:55:35.073Z,984.44
2018-12-09T05:56:35.067Z,984.44
2018-12-09T05:57:35.026Z,984.56
2018-12-09T05:58:35.002Z,984.54
2018-12-09T05:59:34.975Z,984.52
2018-12-09T06:00:34.990Z,984.58
2018-12-09T06:01:34.965Z,984.55
2018-12-09T06:02:34.921Z,984.56
2018-12-09T06:03:34.896Z,984.50
2018-12-09T06:04:34.873Z,984.62
2018-12-09T06:05:34.849Z,984.58
2018-12-09T06:06:34.831Z,984.58
2018-12-09T06:07:34.799Z,984.61
2018-12-09T06:08:34.763Z,984.53
2018-12-09T06:09:34.735Z,984.51
2018-12-09T06:10:34.718Z,984.57
2018-12-09T06:11:34.725Z,984.63
2018-12-09T06:12:34.657Z,984.54
2018-12-09T06:13:34.638Z,984.57
2018-12-09T06:14:34.599Z,984.60
2018-12-09T06:15:34.570Z,984.66
2018-12-09T06:16:34.534Z,984.58
2018-12-09T06:17:34.519Z,984.53
2018-12-09T06:18:34.474Z,984.53
2018-12-09T06:19:34.446Z,984.59
2018-12-09T06:20:34.423Z,984.65
2018-12-09T06:21:34.392Z,984.61
2018-12-09T06:22:34.401Z,984.64
2018-12-09T06:23:34.332Z,984.68
2018-12-09T06:24:34.307Z,984.74
2018-12-09T06:25:34.288Z,984.70
2018-12-09T06:26:34.259Z,984.74
2018-12-09T06:27:34.254Z,984.81
2018-12-09T06:28:34.199Z,984.81
2018-12-09T06:29:34.181Z,984.84
2018-12-09T06:30:34.152Z,984.86
2018-12-09T06:31:34.139Z,984.84
2018-12-09T06:32:34.106Z,984.86
2018-12-09T06:33:34.078Z,984.89
2018-12-09T06:34:34.032Z,984.85
2018-12-09T06:35:34.001Z,984.96
2018-12-09T06:36:33.975Z,985.00
2018-12-09T06:37:33.964Z,984.97
2018-12-09T06:38:33.921Z,984.94
2018-12-09T06:39:33.908Z,985.00
2018-12-09T06:40:33.866Z,985.02
2018-12-09T06:41:33.843Z,984.99
2018-12-09T06:42:33.835Z,985.05
2018-12-09T06:43:33.798Z,985.04
2018-12-09T06:44:33.777Z,985.06
2018-12-09T06:45:33.774Z,985.05
2018-12-09T06:46:33.737Z,985.16
2018-12-09T06:47:33.710Z,985.16
2018-12-09T06:48:33.705Z,985.17
2018-12-09T06:49:33.676Z,985.21
2018-12-09T06:50:33.641Z,985.18
2018-12-09T06:51:33.617Z,985.21
2018-12-09T06:52:33.604Z,985.22
2018-12-09T06:53:33.600Z,985.28
2018-12-09T06:54:33.554Z,985.23
2018-12-09T06:55:33.642Z,985.23
2018-12-09T06:56:33.508Z,985.25
2018-12-09T06:57:33.488Z,985.26
2018-12-09T06:58:33.483Z,985.30
2018-12-09T06:59:33.442Z,985.35
2018-12-09T07:00:33.423Z,985.38
2018-12-09T07:01:33.393Z,985.43
2018-12-09T07:02:33.377Z,985.41
2018-12-09T07:03:33.367Z,985.44
2018-12-09T07:04:33.332Z,985.48
2018-12-09T07:05:33.308Z,985.43
2018-12-09T07:06:33.287Z,985.45
2018-12-09T07:07:33.261Z,985.55
2018-12-09T07:08:33.241Z,985.58
2018-12-09T07:09:33.194Z,985.58
2018-12-09T07:10:33.167Z,985.58
2018-12-09T07:11:33.139Z,985.60
2018-12-09T07:12:33.123Z,985.57
2018-12-09T07:13:33.105Z,985.60
2018-12-09T07:14:33.062Z,985.63
2018-12-09T07:15:33.040Z,985.60
2018-12-09T07:16:33.030Z,985.72
2018-12-09T07:17:32.985Z,985.70
2018-12-09T07:18:32.978Z,985.79
2018-12-09T07:19:32.931Z,985.77
2018-12-09T07:20:32.901Z,985.84
2018-12-09T07:21:32.881Z,985.76
2018-12-09T07:22:32.851Z,985.85
2018-12-09T07:23:32.828Z,985.90
2018-12-09T07:24:32.822Z,985.95
2018-12-09T07:25:32.789Z,985.98
2018-12-09T07:26:32.755Z,985.95
2018-12-09T07:27:32.724Z,985.99
2018-12-09T07:28:32.701Z,985.96
2018-12-09T07:29:32.692Z,985.97
2018-12-09T07:30:32.649Z,986.05
2018-12-09T07:31:32.612Z,986.02
2018-12-09T07:32:32.588Z,986.08
2018-12-09T07:33:32.571Z,986.06
2018-12-09T07:34:32.573Z,986.07
2018-12-09T07:35:32.546Z,986.07
2018-12-09T07:36:32.514Z,986.15
2018-12-09T07:37:32.492Z,986.16
2018-12-09T07:38:32.470Z,986.19
2018-12-09T07:39:32.478Z,986.19
2018-12-09T07:40:32.580Z,986.19
2018-12-09T07:41:32.418Z,986.23
2018-12-09T07:42:32.398Z,986.32
2018-12-09T07:43:32.374Z,986.23
2018-12-09T07:44:32.366Z,986.33
2018-12-09T07:45:32.333Z,986.31
2018-12-09T07:46:32.311Z,986.34
2018-12-09T07:47:32.368Z,986.37
2018-12-09T07:48:32.292Z,986.39
2018-12-09T07:49:32.274Z,986.42
2018-12-09T07:50:32.241Z,986.43
2018-12-09T07:51:32.216Z,986.48
2018-12-09T07:52:32.176Z,986.46
2018-12-09T07:53:32.151Z,986.52
2018-12-09T07:54:32.158Z,986.53
2018-12-09T07:55:32.110Z,986.47
2018-12-09T07:56:32.076Z,986.49
2018-12-09T07:57:32.055Z,986.51
2018-12-09T07:58:32.026Z,986.53
2018-12-09T07:59:32.015Z,986.55
2018-12-09T08:00:31.977Z,986.57
2018-12-09T08:01:31.939Z,986.58
2018-12-09T08:02:31.917Z,986.60
2018-12-09T08:03:31.912Z,986.62
2018-12-09T08:04:31.857Z,986.69
2018-12-09T08:05:31.845Z,986.67
2018-12-09T08:06:31.807Z,986.67
2018-12-09T08:07:31.792Z,986.72
2018-12-09T08:08:31.763Z,986.73
2018-12-09T08:09:31.756Z,986.76
2018-12-09T08:10:31.732Z,986.79
2018-12-09T08:11:31.697Z,986.79
2018-12-09T08:12:31.678Z,986.82
2018-12-09T08:13:31.660Z,986.82
2018-12-09T08:14:31.649Z,986.81
2018-12-09T08:15:31.651Z,986.85
2018-12-09T08:16:31.617Z,986.80
2018-12-09T08:17:31.588Z,986.82
2018-12-09T08:18:31.568Z,986.82
2018-12-09T08:19:31.543Z,986.87
2018-12-09T08:20:31.557Z,986.93
2018-12-09T08:21:31.506Z,986.90
2018-12-09T08:22:31.486Z,986.93
2018-12-09T08:23:31.462Z,986.95
2018-12-09T08:24:31.438Z,986.98
2018-12-09T08:25:31.435Z,986.96
2018-12-09T08:26:31.402Z,986.94
2018-12-09T08:27:31.383Z,987.03
2018-12-09T08:28:31.370Z,987.00
2018-12-09T08:29:31.338Z,986.91
2018-12-09T08:30:31.340Z,987.01
2018-12-09T08:31:31.303Z,987.00
2018-12-09T08:32:31.284Z,987.01
2018-12-09T08:33:31.255Z,987.07
2018-12-09T08:34:31.235Z,987.08
2018-12-09T08:35:31.230Z,987.02
2018-12-09T08:36:31.195Z,987.12
2018-12-09T08:37:31.176Z,987.14
2018-12-09T08:38:31.174Z,987.15
2018-12-09T08:39:31.161Z,987.18
2018-12-09T08:40:31.158Z,987.20
2018-12-09T08:41:31.120Z,987.23
2018-12-09T08:42:31.109Z,987.24
2018-12-09T08:43:31.084Z,987.24
2018-12-09T08:44:31.067Z,987.27
2018-12-09T08:45:31.058Z,987.35
2018-12-09T08:46:31.023Z,987.29
2018-12-09T08:47:31.001Z,987.30
2018-12-09T08:48:30.970Z,987.31
2018-12-09T08:49:30.954Z,987.36
2018-12-09T08:50:30.959Z,987.37
2018-12-09T08:51:30.912Z,987.38
2018-12-09T08:52:30.894Z,987.34
2018-12-09T08:53:30.880Z,987.40
2018-12-09T08:54:30.863Z,987.39
2018-12-09T08:55:30.848Z,987.42
2018-12-09T08:56:30.850Z,987.41
2018-12-09T08:57:30.810Z,987.52
2018-12-09T08:58:30.791Z,987.49
2018-12-09T08:59:30.797Z,987.52
2018-12-09T09:00:30.800Z,987.50
2018-12-09T09:01:30.810Z,987.51
2018-12-09T09:02:30.787Z,987.57
2018-12-09T09:03:30.778Z,987.60
2018-12-09T09:04:32.323Z,987.61
2018-12-09T09:05:30.736Z,987.58
2018-12-09T09:06:30.739Z,987.61
2018-12-09T09:07:30.689Z,987.67
2018-12-09T09:08:30.671Z,987.64
2018-12-09T09:09:30.652Z,987.74
2018-12-09T09:10:30.634Z,987.72
2018-12-09T09:11:30.631Z,987.76
2018-12-09T09:12:30.640Z,987.75
2018-12-09T09:13:30.589Z,987.74
2018-12-09T09:14:30.554Z,987.75
2018-12-09T09:15:30.532Z,987.82
2018-12-09T09:16:30.522Z,987.86
2018-12-09T09:17:30.485Z,987.88
2018-12-09T09:18:30.493Z,987.90
2018-12-09T09:19:30.434Z,987.87
2018-12-09T09:20:30.417Z,987.95
2018-12-09T09:21:30.418Z,987.90
2018-12-09T09:22:30.376Z,987.88
2018-12-09T09:23:30.345Z,987.95
2018-12-09T09:24:30.304Z,987.95
2018-12-09T09:25:30.287Z,987.91
2018-12-09T09:26:30.293Z,988.00
2018-12-09T09:27:30.240Z,987.98
2018-12-09T09:28:30.217Z,987.99
2018-12-09T09:29:30.195Z,988.06
2018-12-09T09:30:30.170Z,987.98
2018-12-09T09:31:30.189Z,988.02
2018-12-09T09:32:30.122Z,988.10
2018-12-09T09:33:30.106Z,988.06
2018-12-09T09:34:30.084Z,988.07
2018-12-09T09:35:30.057Z,988.12
2018-12-09T09:36:30.050Z,988.12
2018-12-09T09:37:30.050Z,988.20
2018-12-09T09:38:29.991Z,988.08
2018-12-09T09:39:29.942Z,988.19
2018-12-09T09:40:29.913Z,988.15
2018-12-09T09:41:29.896Z,988.18
2018-12-09T09:42:30.022Z,988.14
2018-12-09T09:43:29.845Z,988.23
2018-12-09T09:44:29.828Z,988.26
2018-12-09T09:45:29.794Z,988.25
2018-12-09T09:46:29.758Z,988.19
2018-12-09T09:47:29.754Z,988.24
2018-12-09T09:48:29.704Z,988.26
2018-12-09T09:49:29.681Z,988.22
2018-12-09T09:50:29.663Z,988.23
2018-12-09T09:51:29.649Z,988.29
2018-12-09T09:52:29.644Z,988.29
2018-12-09T09:53:29.596Z,988.26
2018-12-09T09:54:29.596Z,988.29
2018-12-09T09:55:29.573Z,988.28
2018-12-09T09:56:29.558Z,988.41
2018-12-09T09:57:29.558Z,988.32
2018-12-09T09:58:29.526Z,988.28
2018-12-09T09:59:29.511Z,988.36
2018-12-09T10:00:29.490Z,988.34
2018-12-09T10:01:29.472Z,988.35
2018-12-09T10:02:29.464Z,988.33
2018-12-09T10:03:29.424Z,988.42
2018-12-09T10:04:29.408Z,988.36
2018-12-09T10:05:29.398Z,988.35
2018-12-09T10:06:29.362Z,988.39
2018-12-09T10:07:29.358Z,988.40
2018-12-09T10:08:29.349Z,988.44
2018-12-09T10:09:29.334Z,988.45
2018-12-09T10:10:29.279Z,988.44
2018-12-09T10:11:29.260Z,988.47
2018-12-09T10:12:29.276Z,988.44
2018-12-09T10:13:29.228Z,988.46
2018-12-09T10:14:29.224Z,988.40
2018-12-09T10:15:29.184Z,988.42
2018-12-09T10:16:29.167Z,988.39
2018-12-09T10:17:29.185Z,988.42
2018-12-09T10:18:29.131Z,988.38
2018-12-09T10:19:29.109Z,988.41
2018-12-09T10:20:29.087Z,988.45
2018-12-09T10:21:29.074Z,988.49
2018-12-09T10:22:29.057Z,988.45
2018-12-09T10:23:29.036Z,988.46
2018-12-09T10:24:36.051Z,988.44
2018-12-09T10:25:28.999Z,988.51
2018-12-09T10:26:36.263Z,988.48
2018-12-09T10:27:29.956Z,988.53
2018-12-09T10:28:28.914Z,988.49
2018-12-09T10:29:28.894Z,988.50
2018-12-09T10:30:28.860Z,988.44
2018-12-09T10:31:28.841Z,988.47
2018-12-09T10:32:28.857Z,988.47
2018-12-09T10:33:28.791Z,988.48
2018-12-09T10:34:28.764Z,988.47
2018-12-09T10:35:28.740Z,988.50
2018-12-09T10:36:28.722Z,988.44
2018-12-09T10:37:28.774Z,988.46
2018-12-09T10:38:28.693Z,988.47
2018-12-09T10:39:28.645Z,988.48
2018-12-09T10:40:28.641Z,988.41
2018-12-09T10:41:28.594Z,988.41
2018-12-09T10:42:28.553Z,988.45
2018-12-09T10:43:28.535Z,988.45
2018-12-09T10:44:28.493Z,988.48
2018-12-09T10:45:28.463Z,988.45
2018-12-09T10:46:28.441Z,988.44
2018-12-09T10:47:28.409Z,988.49
2018-12-09T10:48:28.393Z,988.45
2018-12-09T10:49:28.361Z,988.50
2018-12-09T10:50:28.358Z,988.51
2018-12-09T10:51:28.345Z,988.52
2018-12-09T10:52:28.316Z,988.48
2018-12-09T10:53:28.309Z,988.54
2018-12-09T10:54:28.262Z,988.47
2018-12-09T10:55:28.238Z,988.53
2018-12-09T10:56:28.276Z,988.51
2018-12-09T10:57:28.278Z,988.53
2018-12-09T10:58:28.213Z,988.54
2018-12-09T10:59:28.169Z,988.54
2018-12-09T11:00:28.143Z,988.63
2018-12-09T11:01:28.107Z,988.59
2018-12-09T11:02:28.075Z,988.63
2018-12-09T11:03:28.066Z,988.59
2018-12-09T11:04:28.023Z,988.54
2018-12-09T11:05:27.992Z,988.54
2018-12-09T11:06:27.993Z,988.58
2018-12-09T11:07:27.935Z,988.60
2018-12-09T11:08:27.926Z,988.61
2018-12-09T11:09:27.878Z,988.63
2018-12-09T11:10:27.878Z,988.63
2018-12-09T11:11:27.821Z,988.65
2018-12-09T11:12:27.801Z,988.63
2018-12-09T11:13:27.774Z,988.66
2018-12-09T11:14:27.757Z,988.73
2018-12-09T11:15:27.739Z,988.71
2018-12-09T11:16:27.758Z,988.78
2018-12-09T11:17:27.650Z,988.76
2018-12-09T11:18:27.637Z,988.82
2018-12-09T11:19:27.620Z,988.79
2018-12-09T11:20:27.569Z,988.80
2018-12-09T11:21:30.864Z,988.78
2018-12-09T11:22:27.522Z,988.79
2018-12-09T11:23:27.491Z,988.80
2018-12-09T11:24:27.481Z,988.70
2018-12-09T11:25:27.442Z,988.77
2018-12-09T11:26:27.417Z,988.76
2018-12-09T11:27:27.386Z,988.76
2018-12-09T11:28:27.355Z,988.77
2018-12-09T11:29:27.368Z,988.75
2018-12-09T11:30:27.316Z,988.78
2018-12-09T11:31:27.280Z,988.78
2018-12-09T11:32:27.250Z,988.80
2018-12-09T11:33:27.219Z,988.81
2018-12-09T11:34:27.228Z,988.80
2018-12-09T11:35:27.169Z,988.79
2018-12-09T11:36:27.153Z,988.79
2018-12-09T11:37:27.133Z,988.81
2018-12-09T11:38:27.120Z,988.78
2018-12-09T11:39:27.131Z,988.73
2018-12-09T11:40:27.059Z,988.76
2018-12-09T11:41:27.027Z,988.80
2018-12-09T11:42:26.999Z,988.73
2018-12-09T11:43:26.970Z,988.70
2018-12-09T11:44:26.991Z,988.68
2018-12-09T11:45:26.926Z,988.67
2018-12-09T11:46:26.935Z,988.63
2018-12-09T11:47:26.887Z,988.69
2018-12-09T11:48:26.870Z,988.62
2018-12-09T11:49:26.826Z,988.66
2018-12-09T11:50:26.804Z,988.64
2018-12-09T11:51:26.781Z,988.64
2018-12-09T11:52:26.748Z,988.66
2018-12-09T11:53:26.712Z,988.67
2018-12-09T11:54:26.682Z,988.72
2018-12-09T11:55:26.666Z,988.65
2018-12-09T11:56:26.645Z,988.72
2018-12-09T11:57:26.592Z,988.74
2018-12-09T11:58:26.572Z,988.75
2018-12-09T11:59:26.553Z,988.68
2018-12-09T12:00:26.568Z,988.68
2018-12-09T12:01:26.491Z,988.76
2018-12-09T12:02:26.460Z,988.73
2018-12-09T12:03:26.425Z,988.75
2018-12-09T12:04:26.412Z,988.77
2018-12-09T12:05:26.395Z,988.73
2018-12-09T12:06:26.361Z,988.78
2018-12-09T12:07:26.322Z,988.75
2018-12-09T12:08:26.296Z,988.76
2018-12-09T12:09:26.255Z,988.80
2018-12-09T12:10:26.256Z,988.82
2018-12-09T12:11:26.224Z,988.80
2018-12-09T12:12:26.196Z,988.79
2018-12-09T12:13:26.141Z,988.82
2018-12-09T12:14:26.115Z,988.82
2018-12-09T12:15:26.165Z,988.86
2018-12-09T12:16:26.061Z,988.82
2018-12-09T12:17:26.024Z,988.82
2018-12-09T12:18:26.000Z,988.84
2018-12-09T12:19:25.970Z,988.79
2018-12-09T12:20:25.955Z,988.89
2018-12-09T12:21:25.920Z,988.83
2018-12-09T12:22:25.895Z,988.82
2018-12-09T12:23:25.928Z,988.86
2018-12-09T12:24:25.851Z,988.89
2018-12-09T12:25:25.845Z,988.92
2018-12-09T12:26:25.831Z,988.94
2018-12-09T12:27:25.753Z,988.91
2018-12-09T12:28:25.727Z,988.91